Time;durP1;ratioP1;P1;durP2;ratioP2;P2;SDS_P1;SDS_P2;PMS_P1;PMS_P2;Temp;Humidity;BMP_temperature;BMP_pressure;BME280_temperature;BME280_humidity;BME280_pressure;Samples;Min_cycle;Max_cycle;Signal;HPM_P1;HPM_P2
2021/03/06 00:01:45;;;;;;;29.63;9.27;;;-1.50;99.90;;;;;;4954558;28;20209;-71
2021/03/06 00:04:12;;;;;;;34.43;9.37;;;-1.50;99.90;;;;;;4976784;28;20273;-72
2021/03/06 00:06:39;;;;;;;28.83;8.40;;;-1.50;99.90;;;;;;4993043;28;20235;-72
2021/03/06 00:09:06;;;;;;;26.30;8.60;;;-1.50;99.90;;;;;;4973096;28;20204;-71
2021/03/06 00:11:33;;;;;;;25.00;8.40;;;-1.60;99.90;;;;;;4957201;28;20707;-72
2021/03/06 00:14:00;;;;;;;29.27;8.70;;;-1.60;99.90;;;;;;4954350;29;20204;-71
2021/03/06 00:16:27;;;;;;;29.13;9.00;;;-1.60;99.90;;;;;;4950427;29;20197;-71
2021/03/06 00:18:53;;;;;;;23.23;8.00;;;-1.60;99.90;;;;;;4923013;29;20206;-71
2021/03/06 00:21:20;;;;;;;25.53;8.23;;;-1.60;99.90;;;;;;4916314;29;20230;-70
2021/03/06 00:23:47;;;;;;;20.27;7.63;;;-1.60;99.90;;;;;;4934589;28;20585;-71
2021/03/06 00:26:15;;;;;;;22.23;8.27;;;-1.60;99.90;;;;;;4934637;29;20233;-71
2021/03/06 00:28:42;;;;;;;25.00;8.53;;;-1.60;99.90;;;;;;4956931;28;20232;-71
2021/03/06 00:31:09;;;;;;;23.00;7.70;;;-1.70;99.90;;;;;;4973363;28;20247;-71
2021/03/06 00:33:35;;;;;;;24.47;8.80;;;-1.70;99.90;;;;;;4992584;28;20207;-71
2021/03/06 00:36:02;;;;;;;22.80;7.40;;;-1.60;99.90;;;;;;5011928;28;20611;-71
2021/03/06 00:38:29;;;;;;;28.77;8.73;;;-1.70;99.90;;;;;;5011818;28;20609;-71
2021/03/06 00:40:56;;;;;;;25.03;7.97;;;-1.70;99.90;;;;;;4999190;28;20210;-71
2021/03/06 00:43:22;;;;;;;25.40;8.10;;;-1.70;99.90;;;;;;5011838;28;20561;-71
2021/03/06 00:45:50;;;;;;;30.87;9.00;;;-1.70;99.90;;;;;;5028256;28;20249;-71
2021/03/06 00:48:16;;;;;;;34.73;9.87;;;-1.70;99.90;;;;;;4992560;28;20602;-72
2021/03/06 00:50:43;;;;;;;27.70;8.37;;;-1.80;99.90;;;;;;4992221;28;20697;-71
2021/03/06 00:53:13;;;;;;;33.97;9.57;;;-1.80;99.90;;;;;;5011543;28;20302;-71
2021/03/06 00:55:40;;;;;;;32.53;9.50;;;-1.70;99.90;;;;;;4975856;28;20603;-71
2021/03/06 00:58:07;;;;;;;27.70;8.63;;;-1.80;99.90;;;;;;4972991;28;20204;-71
2021/03/06 01:00:35;;;;;;;23.50;8.73;;;-1.80;99.90;;;;;;4972737;28;20717;-71
2021/03/06 01:03:07;;;;;;;29.27;8.27;;;-1.70;99.90;;;;;;4957124;28;20533;-71
2021/03/06 01:05:34;;;;;;;24.93;8.13;;;-1.80;99.90;;;;;;4936064;29;20222;-71
2021/03/06 01:08:00;;;;;;;26.13;9.10;;;-1.70;99.90;;;;;;5047278;28;20197;-71
2021/03/06 01:10:31;;;;;;;22.37;7.30;;;-1.80;99.90;;;;;;5055108;28;20235;-71
2021/03/06 01:12:57;;;;;;;21.30;7.70;;;-1.70;99.90;;;;;;5055612;28;20213;-71
2021/03/06 01:15:24;;;;;;;30.70;9.63;;;-1.70;99.90;;;;;;5015609;28;20199;-71
2021/03/06 01:17:51;;;;;;;31.70;9.77;;;-1.70;99.90;;;;;;5015476;28;20202;-71
2021/03/06 01:20:19;;;;;;;30.43;10.53;;;-1.80;99.90;;;;;;4997536;28;20217;-71
2021/03/06 01:22:46;;;;;;;32.10;10.77;;;-1.70;99.90;;;;;;4995763;28;20208;-71
2021/03/06 01:25:14;;;;;;;28.27;10.27;;;-1.70;99.90;;;;;;4997451;28;20270;-71
2021/03/06 01:27:40;;;;;;;27.67;10.23;;;-1.70;99.90;;;;;;4977972;28;20236;-71
2021/03/06 01:30:09;;;;;;;24.87;9.70;;;-1.70;99.90;;;;;;4976046;28;20208;-71
2021/03/06 01:32:35;;;;;;;25.57;9.57;;;-1.70;99.90;;;;;;4956711;28;20292;-71
2021/03/06 01:35:02;;;;;;;23.70;9.33;;;-1.70;99.90;;;;;;4956831;28;20209;-72
2021/03/06 01:37:30;;;;;;;26.67;9.77;;;-1.70;99.90;;;;;;4957090;29;20232;-71
2021/03/06 01:39:56;;;;;;;28.90;10.37;;;-1.70;99.90;;;;;;4939777;29;20209;-71
2021/03/06 01:42:23;;;;;;;23.30;8.90;;;-1.70;99.90;;;;;;4935324;29;20566;-72
2021/03/06 01:44:51;;;;;;;23.83;9.07;;;-1.70;99.90;;;;;;4937328;29;20557;-71
2021/03/06 01:47:17;;;;;;;25.83;8.97;;;-1.70;99.90;;;;;;4953692;29;20204;-72
2021/03/06 01:49:44;;;;;;;23.73;8.57;;;-1.70;99.90;;;;;;4956838;29;20216;-72
2021/03/06 01:52:11;;;;;;;22.07;8.70;;;-1.80;99.90;;;;;;4956837;29;20208;-71
2021/03/06 01:54:40;;;;;;;19.47;7.90;;;-1.80;99.90;;;;;;4956733;29;20328;-71
2021/03/06 01:57:07;;;;;;;28.00;9.10;;;-1.80;99.90;;;;;;4973188;28;20251;-72
2021/03/06 01:59:33;;;;;;;30.77;10.00;;;-1.80;99.90;;;;;;4975618;28;20532;-71
2021/03/06 02:02:00;;;;;;;23.03;8.80;;;-1.80;99.90;;;;;;4973251;28;20211;-72
2021/03/06 02:04:28;;;;;;;21.83;8.13;;;-1.80;99.90;;;;;;4991826;28;20208;-72
2021/03/06 02:06:55;;;;;;;24.90;9.30;;;-1.80;99.90;;;;;;4995008;28;20207;-72
2021/03/06 02:09:22;;;;;;;21.80;8.87;;;-1.80;99.90;;;;;;4975409;28;20208;-72
2021/03/06 02:11:56;;;;;;;24.17;9.70;;;-1.80;99.90;;;;;;4975517;28;20210;-71
2021/03/06 02:14:54;;;;;;;24.47;9.40;;;-1.90;99.90;;;;;;4956326;29;20619;-71
2021/03/06 02:17:27;;;;;;;21.00;8.67;;;-1.90;99.90;;;;;;4956369;29;20205;-71
2021/03/06 02:20:39;;;;;;;24.90;8.90;;;-1.90;99.90;;;;;;4954845;28;20208;-71
2021/03/06 02:23:42;;;;;;;26.23;8.37;;;-1.90;99.90;;;;;;4937127;29;20221;-71
2021/03/06 02:26:32;;;;;;;18.57;7.77;;;-1.90;99.90;;;;;;4936798;29;20311;-71
2021/03/06 02:29:37;;;;;;;23.97;8.57;;;-2.00;99.90;;;;;;4879880;29;20249;-71
2021/03/06 02:32:11;;;;;;;28.63;8.73;;;-2.00;99.90;;;;;;4881543;29;20211;-71
2021/03/06 02:34:41;;;;;;;30.40;8.53;;;-2.00;99.90;;;;;;4899052;29;20226;-71
2021/03/06 02:37:10;;;;;;;37.37;8.83;;;-2.00;99.90;;;;;;4899133;29;20693;-71
2021/03/06 02:39:43;;;;;;;31.87;8.23;;;-2.10;99.90;;;;;;4898617;29;20267;-72
2021/03/06 02:42:13;;;;;;;40.43;11.27;;;-2.20;99.90;;;;;;4898742;29;20215;-72
2021/03/06 02:44:42;;;;;;;46.30;12.47;;;-2.20;99.90;;;;;;4906117;29;20256;-72
2021/03/06 02:47:09;;;;;;;39.23;11.43;;;-2.30;99.90;;;;;;4936902;29;20269;-71
2021/03/06 02:49:36;;;;;;;42.13;11.20;;;-2.30;99.90;;;;;;4936303;29;20233;-71
2021/03/06 02:52:03;;;;;;;32.67;9.67;;;-2.30;99.90;;;;;;4954593;29;20240;-72
2021/03/06 02:54:30;;;;;;;25.90;8.73;;;-2.40;99.90;;;;;;4980380;28;20204;-72
2021/03/06 02:56:56;;;;;;;25.10;8.23;;;-2.40;99.90;;;;;;4975005;28;20597;-72
2021/03/06 02:59:48;;;;;;;22.43;7.77;;;-2.40;99.90;;;;;;4974735;28;20208;-72
2021/03/06 03:02:22;;;;;;;21.97;8.27;;;-2.50;99.90;;;;;;4974993;28;20215;-72
2021/03/06 03:05:00;;;;;;;17.97;6.63;;;-2.50;99.90;;;;;;4974994;28;20215;-72
2021/03/06 03:07:32;;;;;;;21.87;6.80;;;-2.50;99.90;;;;;;5033417;28;20355;-72
2021/03/06 03:10:04;;;;;;;17.57;6.90;;;-2.50;99.90;;;;;;5033258;28;20210;-72
2021/03/06 03:12:34;;;;;;;14.60;6.10;;;-2.60;99.90;;;;;;5033693;28;20194;-72
2021/03/06 03:15:09;;;;;;;16.70;6.03;;;-2.50;99.90;;;;;;5033271;28;20230;-72
2021/03/06 03:17:40;;;;;;;17.53;7.40;;;-2.30;99.90;;;;;;5033507;28;20214;-72
2021/03/06 03:20:15;;;;;;;19.13;7.13;;;-2.60;99.90;;;;;;5013261;28;20203;-72
2021/03/06 03:22:47;;;;;;;23.27;7.70;;;-2.60;99.90;;;;;;4985191;28;20203;-72
2021/03/06 03:25:14;;;;;;;18.10;7.47;;;-2.60;99.90;;;;;;5013433;28;20343;-72
2021/03/06 03:27:43;;;;;;;17.57;7.57;;;-2.60;99.90;;;;;;5000586;28;20378;-72
2021/03/06 03:30:16;;;;;;;20.60;8.37;;;-2.60;99.90;;;;;;5012940;28;20314;-72
2021/03/06 03:32:44;;;;;;;16.93;7.63;;;-2.60;99.90;;;;;;5013163;28;20198;-72
2021/03/06 03:35:14;;;;;;;21.93;7.70;;;-2.60;99.90;;;;;;5013300;28;20266;-72
2021/03/06 03:37:42;;;;;;;21.87;8.23;;;-2.60;99.90;;;;;;5012876;28;20249;-72
2021/03/06 03:40:12;;;;;;;23.13;8.80;;;-2.60;99.90;;;;;;5012828;28;20215;-72
2021/03/06 03:42:40;;;;;;;26.47;8.50;;;-2.60;99.90;;;;;;5013078;28;20210;-71
2021/03/06 03:45:08;;;;;;;19.57;8.03;;;-2.70;99.90;;;;;;5012647;28;20222;-71
2021/03/06 03:47:38;;;;;;;21.87;7.97;;;-2.70;99.90;;;;;;5014601;28;20211;-71
2021/03/06 03:50:07;;;;;;;24.63;8.53;;;-2.60;99.90;;;;;;5032838;28;20217;-71
2021/03/06 03:52:36;;;;;;;23.40;8.10;;;-2.70;99.90;;;;;;5032396;28;20757;-71
2021/03/06 03:55:05;;;;;;;20.13;8.17;;;-2.70;99.90;;;;;;5032108;28;20225;-71
2021/03/06 03:57:32;;;;;;;18.47;7.13;;;-2.70;99.90;;;;;;5032742;28;20544;-71
2021/03/06 04:00:00;;;;;;;20.20;7.17;;;-2.70;99.90;;;;;;5052373;28;20212;-71
2021/03/06 04:02:28;;;;;;;20.33;7.50;;;-2.70;99.90;;;;;;5052250;28;20201;-72
2021/03/06 04:04:56;;;;;;;19.73;7.23;;;-2.70;99.90;;;;;;5071935;28;20213;-71
2021/03/06 04:07:22;;;;;;;17.50;7.13;;;-2.70;99.90;;;;;;5072680;28;20208;-71
2021/03/06 04:09:49;;;;;;;19.17;7.63;;;-2.80;99.90;;;;;;5051823;28;20209;-71
2021/03/06 04:12:16;;;;;;;22.37;7.90;;;-2.80;99.90;;;;;;5052031;28;20336;-71
2021/03/06 04:14:43;;;;;;;26.27;9.23;;;-2.80;99.90;;;;;;5051777;28;20222;-71
2021/03/06 04:17:11;;;;;;;22.00;8.57;;;-2.80;99.90;;;;;;5051975;28;20214;-71
2021/03/06 04:19:37;;;;;;;26.10;9.53;;;-2.80;99.90;;;;;;5031759;28;20199;-71
2021/03/06 04:22:05;;;;;;;24.47;8.43;;;-2.90;99.90;;;;;;5032011;28;20202;-71
2021/03/06 04:24:31;;;;;;;21.17;8.77;;;-2.90;99.90;;;;;;5032071;28;20198;-71
2021/03/06 04:26:58;;;;;;;21.33;7.87;;;-2.90;99.90;;;;;;4992015;28;20224;-71
2021/03/06 04:29:25;;;;;;;22.67;8.43;;;-2.90;99.90;;;;;;4959170;28;20660;-72
2021/03/06 04:31:51;;;;;;;20.53;8.13;;;-2.90;99.90;;;;;;4954105;28;20264;-72
2021/03/06 04:34:18;;;;;;;21.33;8.13;;;-2.90;99.90;;;;;;4953893;28;20212;-71
2021/03/06 04:36:45;;;;;;;17.33;7.87;;;-2.90;99.90;;;;;;4969643;28;20240;-71
2021/03/06 04:39:12;;;;;;;21.13;7.27;;;-2.90;99.90;;;;;;4973163;28;20204;-72
2021/03/06 04:41:39;;;;;;;18.27;6.80;;;-3.00;99.90;;;;;;4972636;28;20216;-72
2021/03/06 04:44:07;;;;;;;20.37;7.63;;;-2.90;99.90;;;;;;4972849;28;20209;-72
2021/03/06 04:46:34;;;;;;;21.93;8.13;;;-2.90;99.90;;;;;;4953848;29;20229;-72
2021/03/06 04:49:02;;;;;;;21.00;7.40;;;-2.90;99.90;;;;;;4934192;29;20216;-72
2021/03/06 04:51:29;;;;;;;15.30;6.17;;;-2.90;99.90;;;;;;4918271;29;20218;-71
2021/03/06 04:53:56;;;;;;;15.47;6.27;;;-2.90;99.90;;;;;;4915702;29;20560;-72
2021/03/06 04:56:24;;;;;;;16.20;7.17;;;-2.90;99.90;;;;;;4947392;29;20304;-72
2021/03/06 04:58:50;;;;;;;18.03;6.40;;;-2.90;99.90;;;;;;4989039;28;20601;-72
2021/03/06 05:01:17;;;;;;;17.43;6.70;;;-3.00;99.90;;;;;;4973040;28;20203;-71
2021/03/06 05:03:44;;;;;;;17.47;6.13;;;-2.90;99.90;;;;;;4956315;28;20209;-72
2021/03/06 05:06:11;;;;;;;16.73;7.27;;;-3.00;99.90;;;;;;4953196;28;20240;-72
2021/03/06 05:08:39;;;;;;;18.20;6.87;;;-3.00;99.90;;;;;;4969570;28;20709;-71
2021/03/06 05:11:06;;;;;;;20.43;7.30;;;-2.90;99.90;;;;;;4973139;28;20240;-71
2021/03/06 05:13:34;;;;;;;19.07;6.77;;;-2.90;99.90;;;;;;4972897;28;20201;-71
2021/03/06 05:16:00;;;;;;;19.20;8.13;;;-2.90;99.90;;;;;;4973140;28;20239;-71
2021/03/06 05:18:27;;;;;;;20.40;7.83;;;-2.90;99.90;;;;;;4955839;28;20621;-71
2021/03/06 05:20:54;;;;;;;17.33;6.97;;;-2.90;99.90;;;;;;4952987;29;20201;-71
2021/03/06 05:23:20;;;;;;;20.23;8.07;;;-2.90;99.90;;;;;;4953120;28;20559;-71
2021/03/06 05:25:47;;;;;;;22.23;7.97;;;-2.90;99.90;;;;;;4952963;29;20229;-71
2021/03/06 05:28:18;;;;;;;26.40;8.50;;;-2.80;99.90;;;;;;4952987;29;20233;-71
2021/03/06 05:30:46;;;;;;;18.30;7.77;;;-2.90;99.90;;;;;;4937245;29;20218;-71
2021/03/06 05:33:14;;;;;;;20.47;8.30;;;-2.90;99.90;;;;;;4938997;29;20224;-71
2021/03/06 05:35:40;;;;;;;26.60;9.43;;;-2.90;99.90;;;;;;4933833;29;20711;-71
2021/03/06 05:38:07;;;;;;;36.20;11.77;;;-2.90;99.90;;;;;;4950658;29;20268;-71
2021/03/06 05:40:38;;;;;;;36.67;11.57;;;-2.90;99.90;;;;;;4936678;29;20210;-71
2021/03/06 05:43:05;;;;;;;39.23;12.70;;;-2.90;99.90;;;;;;4952960;29;20745;-71
2021/03/06 05:45:32;;;;;;;49.87;14.23;;;-2.80;99.90;;;;;;4970247;28;20213;-71
2021/03/06 05:48:00;;;;;;;48.87;14.90;;;-2.80;99.90;;;;;;4953611;29;20217;-71
2021/03/06 05:50:27;;;;;;;54.87;15.43;;;-2.80;99.90;;;;;;4992071;28;20270;-71
2021/03/06 05:52:56;;;;;;;47.50;13.90;;;-2.80;99.90;;;;;;4991883;28;20231;-71
2021/03/06 05:55:26;;;;;;;48.17;14.13;;;-2.70;99.90;;;;;;4995142;28;20548;-71
2021/03/06 05:57:53;;;;;;;52.43;14.93;;;-2.70;99.90;;;;;;5001159;28;20203;-71
2021/03/06 06:00:21;;;;;;;52.10;15.87;;;-2.70;99.90;;;;;;5034888;28;20217;-71
2021/03/06 06:02:48;;;;;;;51.73;14.10;;;-2.60;99.90;;;;;;5014940;28;20202;-72
2021/03/06 06:05:17;;;;;;;55.60;14.13;;;-2.60;99.90;;;;;;5015113;28;20739;-71
2021/03/06 06:07:45;;;;;;;49.10;12.97;;;-2.50;99.90;;;;;;4975279;28;20200;-71
2021/03/06 06:10:12;;;;;;;42.37;11.83;;;-2.40;99.90;;;;;;4975601;28;20209;-71
2021/03/06 06:12:42;;;;;;;41.77;11.40;;;-2.40;99.90;;;;;;4981202;28;20207;-71
2021/03/06 06:15:11;;;;;;;29.40;9.67;;;-2.30;99.90;;;;;;4995136;28;20274;-71
2021/03/06 06:17:38;;;;;;;30.47;10.00;;;-2.10;99.90;;;;;;4994890;28;20207;-71
2021/03/06 06:20:06;;;;;;;28.53;9.40;;;-1.90;99.90;;;;;;5013330;28;20216;-71
2021/03/06 06:22:33;;;;;;;24.67;9.67;;;-1.70;99.90;;;;;;5014388;28;20218;-71
2021/03/06 06:25:00;;;;;;;26.27;9.43;;;-1.40;99.90;;;;;;5014000;28;20608;-71
2021/03/06 06:27:28;;;;;;;24.60;9.37;;;-0.90;99.90;;;;;;4996436;28;20228;-71
2021/03/06 06:29:56;;;;;;;26.07;9.23;;;-0.40;99.90;;;;;;4994674;28;20562;-71
2021/03/06 06:32:24;;;;;;;29.80;10.93;;;0.30;99.90;;;;;;4994518;28;20215;-71
2021/03/06 06:34:59;;;;;;;27.23;10.53;;;0.90;99.90;;;;;;5013897;28;20565;-71
2021/03/06 06:37:26;;;;;;;25.70;10.37;;;1.80;99.90;;;;;;4987448;28;20204;-71
2021/03/06 06:39:54;;;;;;;28.37;11.20;;;2.30;99.90;;;;;;4974629;28;20204;-71
2021/03/06 06:42:30;;;;;;;26.17;10.47;;;3.50;99.90;;;;;;4975132;28;20208;-71
2021/03/06 06:44:57;;;;;;;23.23;11.50;;;4.20;99.90;;;;;;4975190;28;20204;-71
2021/03/06 06:47:24;;;;;;;24.70;10.63;;;5.00;99.90;;;;;;4936757;29;20206;-71
2021/03/06 06:49:53;;;;;;;23.80;11.30;;;5.80;99.90;;;;;;4955540;28;20205;-71
2021/03/06 06:52:21;;;;;;;26.33;10.80;;;6.50;99.90;;;;;;4955723;28;20551;-71
2021/03/06 06:54:53;;;;;;;27.80;11.37;;;7.10;99.90;;;;;;4955267;28;20555;-72
2021/03/06 06:57:21;;;;;;;25.63;11.30;;;7.70;99.90;;;;;;4955141;29;20203;-71
2021/03/06 06:59:56;;;;;;;29.83;11.27;;;8.30;99.90;;;;;;4955902;28;20281;-71
2021/03/06 07:02:23;;;;;;;29.27;11.60;;;9.00;99.90;;;;;;4956939;28;20208;-71
2021/03/06 07:04:51;;;;;;;30.93;13.03;;;9.60;99.90;;;;;;4933686;29;20210;-71
2021/03/06 07:07:20;;;;;;;29.87;12.77;;;10.30;99.90;;;;;;4898132;29;20235;-71
2021/03/06 07:10:07;;;;;;;32.87;12.20;;;11.00;99.90;;;;;;4954984;29;20199;-71
2021/03/06 07:12:35;;;;;;;27.70;11.63;;;11.80;99.90;;;;;;4955379;29;20207;-71
2021/03/06 07:15:11;;;;;;;27.77;12.27;;;12.50;99.90;;;;;;4955566;29;20208;-71
2021/03/06 07:17:40;;;;;;;34.70;13.03;;;13.10;99.90;;;;;;4955355;29;20210;-71
2021/03/06 07:20:09;;;;;;;31.27;13.30;;;13.70;99.90;;;;;;4954733;29;20655;-71
2021/03/06 07:22:36;;;;;;;30.37;14.23;;;14.30;97.00;;;;;;4954755;29;20221;-71
2021/03/06 07:25:04;;;;;;;28.73;13.50;;;14.80;94.70;;;;;;4973924;28;20202;-71
2021/03/06 07:27:31;;;;;;;28.70;13.20;;;15.20;92.20;;;;;;4984811;28;20232;-71
2021/03/06 07:29:59;;;;;;;30.30;14.30;;;15.50;89.90;;;;;;4993780;28;20209;-71
2021/03/06 07:32:32;;;;;;;25.97;13.50;;;15.80;86.80;;;;;;4954610;28;20257;-71
2021/03/06 07:35:04;;;;;;;26.40;12.63;;;16.20;82.70;;;;;;4955161;29;20603;-71
2021/03/06 07:37:31;;;;;;;25.40;13.27;;;16.60;79.00;;;;;;4954356;29;20255;-71
2021/03/06 07:39:59;;;;;;;23.30;13.07;;;17.10;76.40;;;;;;4948443;29;20554;-71
2021/03/06 07:42:33;;;;;;;22.50;12.10;;;17.60;72.80;;;;;;4948320;28;20209;-71
2021/03/06 07:45:01;;;;;;;24.10;12.13;;;18.00;69.60;;;;;;4993171;28;20204;-71
2021/03/06 07:47:31;;;;;;;26.37;13.27;;;18.50;67.50;;;;;;4992935;28;20231;-71
2021/03/06 07:49:59;;;;;;;27.17;12.43;;;18.90;64.60;;;;;;4992590;28;20286;-72
2021/03/06 07:52:27;;;;;;;24.77;12.57;;;19.30;63.30;;;;;;4935195;29;20230;-71
2021/03/06 07:54:54;;;;;;;26.80;13.37;;;19.60;61.00;;;;;;4993591;28;20255;-71
2021/03/06 07:57:21;;;;;;;27.43;13.93;;;19.70;59.70;;;;;;4993023;28;20211;-71
2021/03/06 07:59:52;;;;;;;25.27;13.63;;;19.80;58.50;;;;;;4973583;28;20303;-71
2021/03/06 08:02:39;;;;;;;24.03;13.53;;;19.70;57.60;;;;;;4954116;28;20223;-71
2021/03/06 08:05:08;;;;;;;28.87;13.93;;;18.80;56.60;;;;;;4954289;28;20302;-71
2021/03/06 08:07:41;;;;;;;23.63;12.57;;;17.40;57.50;;;;;;4973079;28;20739;-71
2021/03/06 08:10:09;;;;;;;26.07;13.43;;;15.60;58.20;;;;;;4961703;28;20241;-71
2021/03/06 08:12:37;;;;;;;27.13;12.63;;;14.00;58.70;;;;;;4954026;29;20209;-71
2021/03/06 08:15:28;;;;;;;23.50;11.40;;;12.60;59.80;;;;;;4954053;28;20214;-72
2021/03/06 08:17:57;;;;;;;23.00;10.70;;;11.20;60.60;;;;;;4877082;29;20218;-71
2021/03/06 08:20:26;;;;;;;27.07;11.97;;;10.20;61.60;;;;;;4859234;29;20208;-71
2021/03/06 08:23:18;;;;;;;20.53;10.30;;;9.40;63.60;;;;;;4859598;29;20209;-71
2021/03/06 08:25:46;;;;;;;25.13;10.00;;;8.50;64.10;;;;;;4844271;29;20292;-71
2021/03/06 08:28:23;;;;;;;25.13;10.07;;;7.80;64.90;;;;;;4814887;29;20582;-71
2021/03/06 08:30:50;;;;;;;21.27;9.10;;;7.10;65.60;;;;;;4804632;29;20206;-71
2021/03/06 08:33:18;;;;;;;21.17;8.90;;;6.60;66.10;;;;;;4824045;29;20247;-71
2021/03/06 08:35:45;;;;;;;18.37;7.97;;;6.20;66.70;;;;;;4810549;29;20213;-71
2021/03/06 08:38:28;;;;;;;17.50;7.97;;;6.00;67.30;;;;;;4822795;29;20607;-71
2021/03/06 08:40:56;;;;;;;17.37;7.10;;;5.70;67.80;;;;;;4844097;29;20209;-71
2021/03/06 08:43:22;;;;;;;18.70;8.23;;;5.40;68.70;;;;;;4877902;29;20211;-71
2021/03/06 08:45:49;;;;;;;19.83;8.00;;;5.20;69.60;;;;;;4903348;29;20299;-71
2021/03/06 08:48:22;;;;;;;19.83;8.30;;;5.00;70.60;;;;;;4919282;29;20225;-71
2021/03/06 08:50:49;;;;;;;18.73;7.93;;;4.80;71.80;;;;;;4944366;28;20208;-71
2021/03/06 08:53:16;;;;;;;22.00;8.13;;;4.70;72.70;;;;;;4972629;28;20208;-70
2021/03/06 08:55:45;;;;;;;16.60;7.77;;;4.60;73.60;;;;;;5020051;28;20206;-72
2021/03/06 08:58:13;;;;;;;16.63;7.47;;;4.60;74.30;;;;;;5033911;28;20194;-71
2021/03/06 09:00:42;;;;;;;14.53;7.23;;;4.60;74.90;;;;;;5050770;28;20197;-71
2021/03/06 09:03:11;;;;;;;15.60;6.33;;;4.50;75.50;;;;;;5031533;28;20210;-71
2021/03/06 09:05:39;;;;;;;15.83;6.60;;;4.50;76.50;;;;;;5031502;28;20556;-71
2021/03/06 09:08:07;;;;;;;12.33;6.23;;;4.40;77.40;;;;;;5011787;28;20705;-71
2021/03/06 09:10:39;;;;;;;15.00;6.50;;;4.50;77.90;;;;;;4986771;28;20228;-71
2021/03/06 09:13:11;;;;;;;17.77;6.60;;;4.50;78.20;;;;;;4991737;28;20229;-72
2021/03/06 09:15:41;;;;;;;13.70;5.87;;;4.40;78.60;;;;;;4991780;28;20231;-72
2021/03/06 09:18:10;;;;;;;17.70;6.80;;;4.50;79.40;;;;;;4991975;28;20199;-71
2021/03/06 09:20:41;;;;;;;20.43;7.70;;;4.50;80.80;;;;;;4991559;28;20270;-72
2021/03/06 09:23:08;;;;;;;21.40;7.87;;;4.60;80.70;;;;;;4953455;29;20659;-72
2021/03/06 09:25:38;;;;;;;17.10;7.23;;;4.60;81.40;;;;;;4933847;29;20273;-71
2021/03/06 09:28:06;;;;;;;17.13;7.00;;;4.60;81.80;;;;;;4913355;29;20234;-72
2021/03/06 09:30:36;;;;;;;16.37;6.70;;;4.80;82.40;;;;;;4880837;29;20259;-72
2021/03/06 09:33:03;;;;;;;18.23;7.60;;;5.10;82.60;;;;;;4899957;29;20364;-72
2021/03/06 09:35:30;;;;;;;18.60;7.53;;;5.40;82.30;;;;;;4918769;29;20688;-71
2021/03/06 09:38:09;;;;;;;17.27;7.37;;;5.70;81.90;;;;;;4918325;29;20207;-71
2021/03/06 09:40:44;;;;;;;17.03;6.93;;;6.00;81.80;;;;;;4939210;29;20213;-72
2021/03/06 09:43:13;;;;;;;16.37;6.70;;;6.30;81.10;;;;;;4927438;29;20214;-71
2021/03/06 09:45:40;;;;;;;14.93;6.43;;;6.50;80.60;;;;;;4918304;29;20302;-71
2021/03/06 09:48:14;;;;;;;16.43;7.17;;;6.50;80.50;;;;;;4918290;29;20207;-72
2021/03/06 09:50:41;;;;;;;17.33;7.03;;;6.50;80.60;;;;;;4928964;29;20222;-72
2021/03/06 09:53:17;;;;;;;16.93;6.90;;;6.30;80.70;;;;;;4940548;28;20216;-72
2021/03/06 09:55:45;;;;;;;20.07;7.93;;;6.20;81.30;;;;;;4956205;29;20206;-72
2021/03/06 09:58:23;;;;;;;21.30;8.23;;;6.10;81.00;;;;;;4977609;28;20213;-72
2021/03/06 10:00:52;;;;;;;18.83;7.43;;;6.00;81.20;;;;;;4994718;28;20686;-72
2021/03/06 10:03:29;;;;;;;14.97;6.30;;;5.80;81.30;;;;;;4956180;29;20205;-72
2021/03/06 10:05:57;;;;;;;13.63;5.90;;;5.70;81.20;;;;;;4975163;28;20228;-71
2021/03/06 10:08:26;;;;;;;9.10;5.07;;;5.80;81.50;;;;;;4979790;28;20606;-71
2021/03/06 10:10:53;;;;;;;10.60;5.20;;;5.80;81.20;;;;;;4994678;28;20211;-72
2021/03/06 10:13:20;;;;;;;10.67;4.40;;;5.70;80.70;;;;;;4994638;28;20224;-71
2021/03/06 10:15:47;;;;;;;9.27;4.90;;;5.70;81.00;;;;;;4994468;28;20207;-71
2021/03/06 10:18:13;;;;;;;7.40;4.20;;;5.80;80.90;;;;;;4994505;28;20204;-72
2021/03/06 10:20:40;;;;;;;10.10;4.53;;;6.00;80.80;;;;;;5003916;28;20207;-72
2021/03/06 10:23:07;;;;;;;11.83;5.13;;;6.00;80.20;;;;;;5014357;28;20242;-72
2021/03/06 10:25:35;;;;;;;9.17;4.57;;;5.90;80.10;;;;;;5033598;28;20203;-71
2021/03/06 10:28:10;;;;;;;10.63;4.60;;;5.90;80.10;;;;;;4994058;28;20228;-72
2021/03/06 10:30:40;;;;;;;8.37;4.73;;;5.90;80.30;;;;;;4975369;28;20315;-72
2021/03/06 10:33:18;;;;;;;11.20;4.93;;;6.00;80.50;;;;;;4974790;28;20202;-71
2021/03/06 10:35:48;;;;;;;10.30;4.90;;;6.20;79.60;;;;;;4974453;28;20200;-71
2021/03/06 10:38:25;;;;;;;10.23;4.50;;;6.20;79.20;;;;;;5013009;28;20235;-71
2021/03/06 10:40:54;;;;;;;8.67;5.00;;;6.30;78.40;;;;;;4935661;29;20211;-71
2021/03/06 10:43:29;;;;;;;10.33;4.90;;;6.40;77.80;;;;;;4936089;29;20216;-71
2021/03/06 10:45:56;;;;;;;9.23;4.20;;;6.40;77.40;;;;;;4936082;29;20241;-71
2021/03/06 10:48:30;;;;;;;7.00;3.87;;;6.50;77.00;;;;;;4936170;29;20268;-72
2021/03/06 10:50:58;;;;;;;4.93;2.83;;;6.60;75.30;;;;;;4936354;29;20640;-72
2021/03/06 10:53:25;;;;;;;5.30;2.90;;;6.60;73.40;;;;;;4957945;28;20214;-72
2021/03/06 10:55:53;;;;;;;5.20;2.20;;;6.70;72.10;;;;;;4974537;28;20211;-72
2021/03/06 10:58:21;;;;;;;6.63;2.67;;;6.70;71.10;;;;;;4971309;28;20265;-72
2021/03/06 11:00:59;;;;;;;5.20;2.50;;;6.60;70.30;;;;;;4974292;28;20232;-72
2021/03/06 11:03:39;;;;;;;5.90;2.77;;;6.70;69.50;;;;;;4962228;28;20244;-72
2021/03/06 11:06:06;;;;;;;4.17;2.60;;;6.70;69.00;;;;;;4969913;28;20223;-72
2021/03/06 11:08:33;;;;;;;4.67;2.60;;;6.70;68.20;;;;;;4959332;28;20208;-72
2021/03/06 11:11:01;;;;;;;5.07;2.87;;;6.60;67.70;;;;;;4976906;28;20211;-72
2021/03/06 11:13:39;;;;;;;5.73;2.20;;;6.50;66.90;;;;;;4995966;28;20279;-72
2021/03/06 11:16:06;;;;;;;6.17;2.60;;;6.40;66.30;;;;;;4994005;28;20330;-71
2021/03/06 11:18:34;;;;;;;5.37;2.60;;;6.50;65.40;;;;;;4993524;28;20209;-72
2021/03/06 11:21:01;;;;;;;3.97;2.33;;;6.50;64.40;;;;;;4993508;28;20589;-71
2021/03/06 11:23:27;;;;;;;11.33;3.00;;;6.60;64.50;;;;;;4993365;28;20551;-71
2021/03/06 11:25:54;;;;;;;5.27;3.03;;;6.60;64.50;;;;;;5012971;28;20241;-71
2021/03/06 11:28:22;;;;;;;4.63;2.50;;;6.60;64.80;;;;;;4992943;28;20758;-72
2021/03/06 11:30:48;;;;;;;7.07;2.50;;;6.50;65.10;;;;;;4990066;28;20206;-71
2021/03/06 11:33:18;;;;;;;4.77;2.87;;;6.50;65.20;;;;;;4954391;29;20714;-72
2021/03/06 11:35:45;;;;;;;6.63;3.00;;;6.40;65.00;;;;;;4955103;28;20216;-71
2021/03/06 11:38:14;;;;;;;3.90;2.83;;;6.30;64.40;;;;;;4954921;29;20547;-71
2021/03/06 11:40:44;;;;;;;4.00;2.90;;;6.30;64.90;;;;;;4954947;29;20218;-72
2021/03/06 11:43:11;;;;;;;2.80;2.40;;;6.40;64.90;;;;;;4935081;29;20216;-71
2021/03/06 11:45:39;;;;;;;4.23;2.60;;;6.50;64.90;;;;;;4953822;29;20243;-73
2021/03/06 11:48:07;;;;;;;4.53;2.50;;;6.40;64.80;;;;;;4989538;28;20206;-71
2021/03/06 11:50:36;;;;;;;6.57;2.90;;;6.40;64.40;;;;;;4973298;28;20199;-71
2021/03/06 11:53:04;;;;;;;4.07;2.47;;;6.30;64.20;;;;;;4973932;28;20210;-71
2021/03/06 11:55:31;;;;;;;4.53;2.57;;;6.20;64.00;;;;;;4973478;28;20224;-71
2021/03/06 11:57:58;;;;;;;3.43;2.20;;;6.10;63.40;;;;;;4991545;28;20205;-71
2021/03/06 12:00:26;;;;;;;6.57;2.90;;;5.90;63.00;;;;;;5009892;28;20290;-71
2021/03/06 12:02:54;;;;;;;3.37;2.60;;;5.80;63.20;;;;;;5012581;28;20269;-71
2021/03/06 12:05:21;;;;;;;5.23;2.63;;;5.80;63.80;;;;;;4973216;28;20216;-71
2021/03/06 12:07:48;;;;;;;5.33;2.63;;;5.90;64.20;;;;;;4973391;28;20236;-70
2021/03/06 12:10:17;;;;;;;3.60;2.40;;;6.00;64.10;;;;;;4992535;28;20202;-71
2021/03/06 12:12:45;;;;;;;6.10;2.77;;;6.20;63.90;;;;;;4992501;28;20208;-71
2021/03/06 12:15:13;;;;;;;3.63;2.40;;;6.30;64.20;;;;;;4953982;28;20207;-71
2021/03/06 12:17:40;;;;;;;3.30;2.27;;;6.40;64.60;;;;;;4972911;28;20250;-71
2021/03/06 12:20:09;;;;;;;4.17;2.77;;;6.40;62.90;;;;;;4953456;29;20203;-72
2021/03/06 12:22:36;;;;;;;5.47;2.80;;;6.40;62.70;;;;;;4972818;28;20206;-72
2021/03/06 12:25:04;;;;;;;4.07;2.60;;;6.40;62.80;;;;;;4953550;29;20209;-72
2021/03/06 12:27:31;;;;;;;3.77;2.40;;;6.40;62.70;;;;;;4953422;28;20705;-72
2021/03/06 12:29:58;;;;;;;5.20;2.73;;;6.40;62.10;;;;;;4915252;29;20603;-72
2021/03/06 12:32:25;;;;;;;4.43;2.23;;;6.30;62.40;;;;;;4915650;29;20223;-71
2021/03/06 12:34:51;;;;;;;4.23;2.60;;;6.30;62.60;;;;;;4934725;29;20213;-72
2021/03/06 12:37:19;;;;;;;4.97;2.30;;;6.30;62.30;;;;;;4917591;29;20291;-72
2021/03/06 12:39:45;;;;;;;5.87;2.60;;;6.30;61.80;;;;;;4934091;29;20219;-72
2021/03/06 12:42:12;;;;;;;9.27;3.60;;;6.40;61.40;;;;;;4934171;29;20279;-72
2021/03/06 12:44:39;;;;;;;5.33;3.13;;;6.40;61.00;;;;;;4917891;29;20208;-71
2021/03/06 12:47:05;;;;;;;4.57;3.00;;;6.40;60.80;;;;;;4877487;29;20225;-72
2021/03/06 12:49:32;;;;;;;5.33;3.10;;;6.40;60.50;;;;;;4862090;29;20214;-72
2021/03/06 12:51:59;;;;;;;5.67;3.40;;;6.20;60.20;;;;;;4855217;29;20217;-72